Kodiak, AK (99619)

6:44 AM AKDT on July 25, 2016 (GMT -0800)
| | Change Station

Elev -9999 ft 0.00 °N, 0.00 °E | Updated

Rain
Rain
57 °F
Feels Like 57 °F
N
5
Wind Variable Wind from NNE
Gusts mph

Today
High -- | Low -- °F
--% Chance of Precip.
Yesterday
High -- | Low -- °F
Precip. -- in
Pressure 29.62 in
Visibility 10.0 miles
Clouds Few 300 ft
Overcast 2700 ft
Dew Point 52 °F
Humidity 84%
Rainfall --
Snow Depth Not available.
5:51 AM 10:39 PM
Waning Gibbous, 65% visible
SPECI PADQ 251425Z 21003KT 10SM -RA FEW003 OVC027 13/13 A2962 RMK AO2 RAE04B12 P0000 T01280128 $
Pressure 29.62 in
Visibility 10.0 miles
Clouds Few 300 ft
Overcast 2700 ft
Dew Point 52 °F
Humidity 84%
Rainfall --
Snow Depth Not available.
5:51 AM 10:39 PM
Waning Gibbous, 65% visible
SPECI PADQ 251425Z 21003KT 10SM -RA FEW003 OVC027 13/13 A2962 RMK AO2 RAE04B12 P0000 T01280128 $

10-Day Weather Forecast

Almanac

Astronomy

Jul. 25, 2016 Rise Set
Actual Time
Civil Twilight
Nautical Twilight
Astronomical Twilight
Moon
Length of Visible Light
Length of Day
Tomorrow will be .
, % of the Moon is Illuminated

Today's Extremes

State Highs State Lows

Community

WunderPhotos

Upload Photos

1,927,305 photos uploaded!

WunderBlog® & News

Nearby

Air Quality

  Air Quality AQ Index Pollutant
Not available.

Snow Depth

Station Depth Elevation

Earthquake Activity

City Distance Mag. Time & Date
Minimum magnitude displayed is 2.5.

Coastal Water Temperatures

Place Temperature

Stations

Nearby Weather Stations

Station Location Temp. Windchill Dew Point Humidity Wind Precip. Elev Updated Type
                   

Watches & Warnings

There are currently no watches in effect.